Cooper, Texas
Current Conditions -  °F | °C
As of 8:55 PM on Wednesday 26 Nov 2014 (Local Time) from KSLR Reporting Station
Clear Clear  
Wind Chill: 51°   Ceiling: Unl
Heat Index: 51°   Visibility: 10mi
Dew Point: 35°   Wind: 10mph
Humidity: 54%   Direction: 320°NW
Pressure: 30.34"   Gusts: NA
Location:  33.37°N, 95.69°W
Report Text: KSLR 270255Z AUTO 32009KT 10SM CLR 11/02 A3034 RMK AO2 T01050016
Loading
Personal Weather Stations






























Interactive Weather Map New forecast layout! Learn more

10-Day Weather Forecast

Advertisements
Track Severe Weather on mobile